createdAt,value
2022-10-23T00:01:26.608Z,9.02
2022-10-23T00:06:19.406Z,9.18
2022-10-23T00:08:46.888Z,9.10
2022-10-23T00:11:14.283Z,8.75
2022-10-23T00:13:40.956Z,8.07
2022-10-23T00:16:07.520Z,7.80
2022-10-23T00:18:34.241Z,8.70
2022-10-23T00:21:00.895Z,7.82
2022-10-23T00:23:27.264Z,9.00
2022-10-23T00:25:53.602Z,9.10
2022-10-23T00:28:20.184Z,8.60
2022-10-23T00:30:46.547Z,8.60
2022-10-23T00:33:12.926Z,7.82
2022-10-23T00:35:42.737Z,10.63
2022-10-23T00:38:09.617Z,10.65
2022-10-23T00:40:36.474Z,10.30
2022-10-23T00:43:03.047Z,9.23
2022-10-23T00:45:33.509Z,7.80
2022-10-23T00:48:00.824Z,7.25
2022-10-23T00:50:28.028Z,6.20
2022-10-23T00:52:55.874Z,6.28
2022-10-23T00:55:23.631Z,6.13
2022-10-23T01:00:21.203Z,6.22
2022-10-23T01:02:47.754Z,6.22
2022-10-23T01:05:14.133Z,6.45
2022-10-23T01:07:43.755Z,6.38
2022-10-23T01:10:14.800Z,6.70
2022-10-23T01:12:51.795Z,7.47
2022-10-23T01:15:18.099Z,7.90
2022-10-23T01:17:47.747Z,6.53
2022-10-23T01:20:22.531Z,6.65
2022-10-23T01:23:07.578Z,7.20
2022-10-23T01:25:33.926Z,7.53
2022-10-23T01:28:02.829Z,7.43
2022-10-23T01:30:29.516Z,7.43
2022-10-23T01:33:06.128Z,8.23
2022-10-23T01:35:37.940Z,8.00
2022-10-23T01:38:07.906Z,8.45
2022-10-23T01:40:37.478Z,8.13
2022-10-23T01:43:26.924Z,8.60
2022-10-23T01:45:55.087Z,9.05
2022-10-23T01:48:29.029Z,8.50
2022-10-23T01:50:57.149Z,8.77
2022-10-23T01:53:25.942Z,9.73
2022-10-23T01:55:53.402Z,9.38
2022-10-23T01:58:21.155Z,9.57
2022-10-23T02:03:15.649Z,9.05
2022-10-23T02:05:42.917Z,9.60
2022-10-23T02:08:09.298Z,10.10
2022-10-23T02:10:47.914Z,8.68
2022-10-23T02:13:14.207Z,9.88
2022-10-23T02:15:48.570Z,10.18
2022-10-23T02:18:24.039Z,9.35
2022-10-23T02:21:16.721Z,11.15
2022-10-23T02:23:52.538Z,10.32
2022-10-23T02:26:27.046Z,10.15
2022-10-23T02:29:13.618Z,10.88
2022-10-23T02:31:40.091Z,10.97
2022-10-23T02:34:06.458Z,10.43
2022-10-23T02:36:33.110Z,10.32
2022-10-23T02:38:59.525Z,12.18
2022-10-23T02:41:28.930Z,12.02
2022-10-23T02:44:10.847Z,13.00
2022-10-23T02:46:45.808Z,12.98
2022-10-23T02:49:21.274Z,12.48
2022-10-23T02:51:54.934Z,12.50
2022-10-23T02:54:24.078Z,13.43
2022-10-23T02:56:57.194Z,12.98
2022-10-23T02:59:31.119Z,12.95
2022-10-23T03:02:18.145Z,13.32
2022-10-23T03:04:45.265Z,13.38
2022-10-23T03:07:13.242Z,13.98
2022-10-23T03:09:39.980Z,14.38
2022-10-23T03:12:06.443Z,14.27
2022-10-23T03:14:32.787Z,14.32
2022-10-23T03:16:59.131Z,14.98
2022-10-23T03:19:25.486Z,13.80
2022-10-23T03:21:51.853Z,14.30
2022-10-23T03:24:18.219Z,12.90
2022-10-23T03:26:44.575Z,12.70
2022-10-23T03:29:10.894Z,12.20
2022-10-23T03:31:37.217Z,12.35
2022-10-23T03:34:06.263Z,11.95
2022-10-23T03:36:34.519Z,11.38
2022-10-23T03:39:00.856Z,11.30
2022-10-23T03:41:27.248Z,12.38
2022-10-23T03:43:53.599Z,12.07
2022-10-23T03:46:20.007Z,12.50
2022-10-23T03:48:46.374Z,12.55
2022-10-23T03:51:12.761Z,14.38
2022-10-23T03:53:39.093Z,13.85
2022-10-23T03:56:05.698Z,14.40
2022-10-23T03:58:32.085Z,13.20
2022-10-23T04:00:58.570Z,13.73
2022-10-23T04:03:25.098Z,14.40
2022-10-23T04:05:52.381Z,14.65
2022-10-23T04:08:20.156Z,14.30
2022-10-23T04:10:46.737Z,14.60
2022-10-23T04:13:13.121Z,16.33
2022-10-23T04:15:39.436Z,14.60
2022-10-23T04:18:05.798Z,14.30
2022-10-23T04:20:32.553Z,15.18
2022-10-23T04:22:58.881Z,15.82
2022-10-23T04:25:25.304Z,16.10
2022-10-23T04:27:51.653Z,17.08
2022-10-23T04:30:18.030Z,16.77
2022-10-23T04:32:44.391Z,16.88
2022-10-23T04:35:10.723Z,18.42
2022-10-23T04:37:37.033Z,16.48
2022-10-23T04:40:03.539Z,17.48
2022-10-23T04:42:30.054Z,16.85
2022-10-23T04:44:56.382Z,16.48
2022-10-23T04:47:22.768Z,15.20
2022-10-23T04:49:49.136Z,16.33
2022-10-23T04:52:15.600Z,15.15
2022-10-23T04:54:41.958Z,16.33
2022-10-23T04:57:08.346Z,14.88
2022-10-23T04:59:34.789Z,14.27
2022-10-23T05:02:01.331Z,15.45
2022-10-23T05:04:27.690Z,15.73
2022-10-23T05:06:54.067Z,12.98
2022-10-23T05:09:22.187Z,13.40
2022-10-23T05:11:48.705Z,13.07
2022-10-23T05:14:18.073Z,13.27
2022-10-23T05:16:45.615Z,12.63
2022-10-23T05:19:14.210Z,13.25
2022-10-23T05:21:41.255Z,11.73
2022-10-23T05:24:07.701Z,12.65
2022-10-23T05:26:34.048Z,11.48
2022-10-23T05:29:00.380Z,11.93
2022-10-23T05:31:26.768Z,11.57
2022-10-23T05:33:54.974Z,13.13
2022-10-23T05:36:22.023Z,11.77
2022-10-23T05:38:48.577Z,10.63
2022-10-23T05:41:14.900Z,11.50
2022-10-23T05:43:41.268Z,11.35
2022-10-23T05:46:07.638Z,11.25
2022-10-23T05:48:35.171Z,12.75
2022-10-23T05:51:09.159Z,12.32
2022-10-23T05:53:38.701Z,11.77
2022-10-23T05:56:08.468Z,12.75
2022-10-23T05:58:34.965Z,10.35
2022-10-23T06:01:05.033Z,10.93
2022-10-23T06:03:31.387Z,11.25
2022-10-23T06:05:57.722Z,10.90
2022-10-23T06:08:24.427Z,10.85
2022-10-23T06:10:50.825Z,12.90
2022-10-23T06:13:17.427Z,10.55
2022-10-23T06:15:43.780Z,9.07
2022-10-23T06:18:10.113Z,7.40
2022-10-23T06:20:37.531Z,9.00
2022-10-23T06:23:04.552Z,6.53
2022-10-23T06:25:30.989Z,3.70
2022-10-23T06:27:57.315Z,3.28
2022-10-23T06:30:23.835Z,2.20
2022-10-23T06:32:50.342Z,2.97
2022-10-23T06:35:16.739Z,1.98
2022-10-23T06:37:43.107Z,2.00
2022-10-23T06:40:09.579Z,2.28
2022-10-23T06:42:35.959Z,2.40
2022-10-23T06:45:04.909Z,1.63
2022-10-23T06:47:33.575Z,1.48
2022-10-23T06:49:59.950Z,0.75
2022-10-23T06:52:45.923Z,0.70
2022-10-23T06:55:12.684Z,0.60
2022-10-23T06:57:39.102Z,0.70
2022-10-23T07:00:05.829Z,0.70
2022-10-23T07:02:32.189Z,0.80
2022-10-23T07:04:58.564Z,0.70
2022-10-23T07:07:24.896Z,0.93
2022-10-23T07:09:51.227Z,0.98
2022-10-23T07:12:17.603Z,0.82
2022-10-23T07:14:43.925Z,0.80
2022-10-23T07:17:10.242Z,0.80
2022-10-23T07:19:36.629Z,0.70
2022-10-23T07:22:02.938Z,0.50
2022-10-23T07:24:30.842Z,0.80
2022-10-23T07:26:58.253Z,0.50
2022-10-23T07:29:24.565Z,0.90
2022-10-23T07:31:50.914Z,1.23
2022-10-23T07:34:17.245Z,1.80
2022-10-23T07:36:43.559Z,1.42
2022-10-23T07:39:09.927Z,0.88
2022-10-23T07:41:36.515Z,1.00
2022-10-23T07:44:02.947Z,0.60
2022-10-23T07:46:29.353Z,0.77
2022-10-23T07:48:55.723Z,0.70
2022-10-23T07:51:22.076Z,0.90
2022-10-23T07:53:48.567Z,0.70
2022-10-23T07:56:26.147Z,0.80
2022-10-23T08:01:23.790Z,0.70
2022-10-23T08:03:50.228Z,0.60
2022-10-23T08:06:16.625Z,0.80
2022-10-23T08:08:42.958Z,0.60
2022-10-23T08:11:10.926Z,1.20
2022-10-23T08:13:37.243Z,0.90
2022-10-23T08:16:03.665Z,0.80
2022-10-23T08:18:30.038Z,1.30
2022-10-23T08:21:00.201Z,1.20
2022-10-23T08:23:27.733Z,0.80
2022-10-23T08:26:01.416Z,1.20
2022-10-23T08:28:27.993Z,1.10
2022-10-23T08:30:55.088Z,0.88
2022-10-23T08:33:21.504Z,0.95
2022-10-23T08:35:47.900Z,0.65
2022-10-23T08:38:14.224Z,0.50
2022-10-23T08:40:44.524Z,0.40
2022-10-23T08:43:10.822Z,0.32
2022-10-23T08:45:44.283Z,0.40
2022-10-23T08:48:18.486Z,0.28
2022-10-23T08:50:48.777Z,0.25
2022-10-23T08:53:41.387Z,0.20
2022-10-23T08:56:33.878Z,0.20
2022-10-23T08:59:05.406Z,0.40
2022-10-23T09:01:36.111Z,0.30
2022-10-23T09:04:03.569Z,0.10
2022-10-23T09:09:05.122Z,0.37
2022-10-23T09:11:38.822Z,0.10
2022-10-23T09:14:26.763Z,0.10
2022-10-23T09:16:53.506Z,0.20
2022-10-23T09:19:26.261Z,0.08
2022-10-23T09:21:53.370Z,0.15
2022-10-23T09:26:48.395Z,0.10
2022-10-23T09:29:26.800Z,0.20
2022-10-23T09:31:57.700Z,0.10
2022-10-23T09:34:28.900Z,0.20
2022-10-23T09:36:57.436Z,0.20
2022-10-23T09:39:25.987Z,0.10
2022-10-23T09:41:56.295Z,0.20
2022-10-23T09:44:25.322Z,0.10
2022-10-23T09:47:06.853Z,0.10
2022-10-23T09:49:34.116Z,0.20
2022-10-23T09:52:02.667Z,0.10
2022-10-23T09:54:31.140Z,0.05
2022-10-23T09:56:59.783Z,0.20
2022-10-23T09:59:28.448Z,0.08
2022-10-23T10:01:56.934Z,0.30
2022-10-23T10:04:33.565Z,0.20
2022-10-23T10:07:01.962Z,0.20
2022-10-23T10:09:28.436Z,0.30
2022-10-23T10:11:55.459Z,0.52
2022-10-23T10:16:51.175Z,0.32
2022-10-23T10:19:17.478Z,0.50
2022-10-23T10:21:52.700Z,0.50
2022-10-23T10:24:22.565Z,0.40
2022-10-23T10:27:02.024Z,0.22
2022-10-23T10:29:51.091Z,0.35
2022-10-23T10:32:32.196Z,0.30
2022-10-23T10:34:58.577Z,0.40
2022-10-23T10:37:29.705Z,0.73
2022-10-23T10:40:00.443Z,0.57
2022-10-23T10:42:26.781Z,0.38
2022-10-23T10:44:55.905Z,0.45
2022-10-23T10:47:25.611Z,0.70
2022-10-23T10:50:11.008Z,0.45
2022-10-23T10:52:49.525Z,0.60
2022-10-23T10:55:23.362Z,0.47
2022-10-23T10:57:59.288Z,0.40
2022-10-23T11:00:26.767Z,0.60
2022-10-23T11:03:02.637Z,0.40
2022-10-23T11:05:34.729Z,0.60
2022-10-23T11:08:07.183Z,0.50
2022-10-23T11:10:33.788Z,0.60
2022-10-23T11:13:00.191Z,0.35
2022-10-23T11:15:34.895Z,0.20
2022-10-23T11:18:03.503Z,0.50
2022-10-23T11:20:39.953Z,0.40
2022-10-23T11:23:34.795Z,0.30
2022-10-23T11:26:20.294Z,0.30
2022-10-23T11:28:52.451Z,0.45
2022-10-23T11:31:37.638Z,0.30
2022-10-23T11:34:13.782Z,0.60
2022-10-23T11:36:56.885Z,0.20
2022-10-23T11:39:25.011Z,0.30
2022-10-23T11:41:53.230Z,0.22
2022-10-23T11:44:24.615Z,0.40
2022-10-23T11:47:39.335Z,0.35
2022-10-23T11:50:06.657Z,0.15
2022-10-23T11:52:36.155Z,0.30
2022-10-23T11:55:46.683Z,0.30
2022-10-23T11:58:24.127Z,0.35
2022-10-23T12:01:30.412Z,0.40
2022-10-23T12:04:06.535Z,0.38
2022-10-23T12:06:43.742Z,0.60
2022-10-23T12:09:39.534Z,0.30
2022-10-23T12:12:08.642Z,0.38
2022-10-23T12:14:38.685Z,0.50
2022-10-23T12:17:20.153Z,0.43
2022-10-23T12:19:54.350Z,0.52
2022-10-23T12:22:23.124Z,0.40
2022-10-23T12:24:49.454Z,0.30
2022-10-23T12:27:15.758Z,0.40
2022-10-23T12:30:01.455Z,0.47
2022-10-23T12:32:36.823Z,0.40
2022-10-23T12:35:24.147Z,0.60
2022-10-23T12:37:51.558Z,0.50
2022-10-23T12:40:17.947Z,0.50
2022-10-23T12:46:18.307Z,0.57
2022-10-23T12:48:53.991Z,0.40
2022-10-23T12:51:24.813Z,0.38
2022-10-23T12:53:51.329Z,0.40
2022-10-23T12:56:18.478Z,0.73
2022-10-23T13:02:23.140Z,0.20
2022-10-23T13:04:50.896Z,0.30
2022-10-23T13:07:19.076Z,0.50
2022-10-23T13:26:55.097Z,0.50
2022-10-23T13:29:40.266Z,0.40
2022-10-23T13:52:46.433Z,0.30
2022-10-23T13:57:50.031Z,0.30
2022-10-23T14:00:16.838Z,0.40
2022-10-23T14:02:43.516Z,0.60
2022-10-23T14:05:10.146Z,0.40
2022-10-23T14:07:36.645Z,0.47
2022-10-23T14:10:03.376Z,0.52
2022-10-23T14:12:29.737Z,0.35
2022-10-23T14:14:56.047Z,0.35
2022-10-23T14:17:22.459Z,0.47
2022-10-23T14:19:50.135Z,0.40
2022-10-23T14:22:16.581Z,0.47
2022-10-23T14:24:42.900Z,0.20
2022-10-23T14:27:09.278Z,0.40
2022-10-23T14:29:35.616Z,0.30
2022-10-23T14:32:02.008Z,0.45
2022-10-23T14:34:28.553Z,0.30
2022-10-23T14:37:08.107Z,0.53
2022-10-23T14:39:35.496Z,0.43
2022-10-23T14:42:01.855Z,0.60
2022-10-23T14:44:28.306Z,0.60
2022-10-23T14:46:54.736Z,0.47
2022-10-23T14:49:21.139Z,0.68
2022-10-23T14:51:47.470Z,0.77
2022-10-23T14:54:15.699Z,0.55
2022-10-23T14:56:42.097Z,0.28
2022-10-23T14:59:10.128Z,0.35
2022-10-23T15:01:43.499Z,0.40
2022-10-23T15:07:33.513Z,0.22
2022-10-23T15:09:59.930Z,0.40
2022-10-23T15:12:26.263Z,0.40
2022-10-23T15:14:52.594Z,0.38
2022-10-23T15:24:02.803Z,0.47
2022-10-23T15:29:50.786Z,0.60
2022-10-23T15:32:17.727Z,0.50
2022-10-23T15:34:44.145Z,3.35
2022-10-23T15:37:11.022Z,3.63
2022-10-23T15:39:37.418Z,3.00
2022-10-23T15:42:05.266Z,1.23
2022-10-23T15:44:32.290Z,0.88
2022-10-23T15:46:58.742Z,1.50
2022-10-23T15:49:25.965Z,1.73
2022-10-23T15:51:52.871Z,1.52
2022-10-23T15:54:19.848Z,1.20
2022-10-23T15:56:49.465Z,1.60
2022-10-23T15:59:16.660Z,1.40
2022-10-23T16:01:43.162Z,1.77
2022-10-23T16:04:09.671Z,1.30
2022-10-23T16:06:36.279Z,1.13
2022-10-23T16:09:02.671Z,1.20
2022-10-23T16:11:30.586Z,1.23
2022-10-23T16:13:57.573Z,1.63
2022-10-23T16:16:24.351Z,2.55
2022-10-23T16:18:50.801Z,1.80
2022-10-23T16:21:21.461Z,4.93
2022-10-23T16:23:47.777Z,4.68
2022-10-23T16:26:14.593Z,5.47
2022-10-23T16:28:43.227Z,11.02
2022-10-23T16:31:11.058Z,4.50
2022-10-23T16:33:37.443Z,4.57
2022-10-23T16:36:07.674Z,6.43
2022-10-23T16:38:34.304Z,4.53
2022-10-23T16:41:02.502Z,4.93
2022-10-23T16:43:32.663Z,5.30
2022-10-23T16:46:06.647Z,5.28
2022-10-23T16:48:33.443Z,5.55
2022-10-23T16:51:00.255Z,5.10
2022-10-23T16:53:29.072Z,5.43
2022-10-23T16:55:56.666Z,5.45
2022-10-23T17:00:58.152Z,5.18
2022-10-23T17:06:46.122Z,3.88
2022-10-23T17:12:35.652Z,4.47
2022-10-23T17:15:02.014Z,3.97
2022-10-23T17:17:28.317Z,3.83
2022-10-23T17:19:54.642Z,3.58
2022-10-23T17:22:21.000Z,3.88
2022-10-23T17:24:50.237Z,3.42
2022-10-23T17:27:20.185Z,3.08
2022-10-23T17:29:46.677Z,2.80
2022-10-23T17:32:13.144Z,2.40
2022-10-23T17:34:39.624Z,2.75
2022-10-23T17:37:05.967Z,2.70
2022-10-23T17:39:32.362Z,3.15
2022-10-23T17:41:58.806Z,2.90
2022-10-23T17:47:46.699Z,2.50
2022-10-23T17:50:13.828Z,2.30
2022-10-23T17:52:40.219Z,2.40
2022-10-23T17:55:06.969Z,2.67
2022-10-23T17:57:33.556Z,2.80
2022-10-23T18:06:40.312Z,2.97
2022-10-23T18:09:06.734Z,2.42
2022-10-23T18:14:56.637Z,2.30
2022-10-23T18:17:32.590Z,1.88
2022-10-23T18:20:02.029Z,2.03
2022-10-23T18:22:30.270Z,1.85
2022-10-23T18:24:56.815Z,2.25
2022-10-23T18:27:23.177Z,1.92
2022-10-23T18:29:50.492Z,2.22
2022-10-23T18:32:16.931Z,2.13
2022-10-23T18:34:43.262Z,2.35
2022-10-23T18:37:09.649Z,2.05
2022-10-23T18:39:36.021Z,2.95
2022-10-23T18:42:02.371Z,2.38
2022-10-23T18:54:48.297Z,1.90
2022-10-23T18:57:14.630Z,1.35
2022-10-23T18:59:40.924Z,2.03
2022-10-23T19:02:07.460Z,1.50
2022-10-23T19:04:36.321Z,1.60
2022-10-23T19:07:02.884Z,1.17
2022-10-23T19:09:29.261Z,1.55
2022-10-23T19:11:55.662Z,1.15
2022-10-23T19:14:21.984Z,1.58
2022-10-23T19:17:06.055Z,1.40
2022-10-23T19:19:35.279Z,1.33
2022-10-23T19:22:02.746Z,1.35
2022-10-23T19:24:36.568Z,1.67
2022-10-23T19:27:03.181Z,1.50
2022-10-23T19:29:30.182Z,1.08
2022-10-23T19:31:56.774Z,1.30
2022-10-23T19:34:24.756Z,2.00
2022-10-23T19:36:52.539Z,1.33
2022-10-23T19:41:45.419Z,1.85
2022-10-23T19:44:12.917Z,3.03
2022-10-23T19:46:39.243Z,4.10
2022-10-23T19:49:05.918Z,4.47
2022-10-23T19:51:32.596Z,3.08
2022-10-23T19:53:59.809Z,4.15
2022-10-23T19:56:26.179Z,3.72
2022-10-23T19:58:53.113Z,3.70
2022-10-23T20:01:21.692Z,3.70
2022-10-23T20:03:51.467Z,3.78
2022-10-23T20:06:19.047Z,3.63
2022-10-23T20:08:45.743Z,3.30
2022-10-23T20:11:19.406Z,2.97
2022-10-23T20:13:47.043Z,3.20
2022-10-23T20:16:24.297Z,2.72
2022-10-23T20:18:51.005Z,2.17
2022-10-23T20:21:17.610Z,2.15
2022-10-23T20:23:44.323Z,2.33
2022-10-23T20:26:12.242Z,2.55
2022-10-23T20:28:39.258Z,2.72
2022-10-23T20:33:32.650Z,2.47
2022-10-23T20:35:59.148Z,2.50
2022-10-23T20:38:25.482Z,2.72
2022-10-23T20:40:52.103Z,2.65
2022-10-23T20:43:18.467Z,3.05
2022-10-23T20:45:44.862Z,2.20
2022-10-23T20:48:11.231Z,2.35
2022-10-23T20:50:38.024Z,2.70
2022-10-23T20:53:04.404Z,2.22
2022-10-23T20:55:30.775Z,2.50
2022-10-23T20:57:57.118Z,3.25
2022-10-23T21:00:23.429Z,3.40
2022-10-23T21:02:51.329Z,3.50
2022-10-23T21:05:18.709Z,3.85
2022-10-23T21:07:45.174Z,3.85
2022-10-23T21:10:11.612Z,3.40
2022-10-23T21:12:37.969Z,2.50
2022-10-23T21:15:04.497Z,2.78
2022-10-23T21:17:35.114Z,2.38
2022-10-23T21:20:01.545Z,2.00
2022-10-23T21:22:27.881Z,3.28
2022-10-23T21:24:56.112Z,2.97
2022-10-23T21:27:22.513Z,3.25
2022-10-23T21:29:48.834Z,2.60
2022-10-23T21:32:15.182Z,2.90
2022-10-23T21:34:41.579Z,3.13
2022-10-23T21:37:12.889Z,2.80
2022-10-23T21:39:40.844Z,3.33
2022-10-23T21:42:07.475Z,3.03
2022-10-23T21:44:33.836Z,2.95
2022-10-23T21:47:00.273Z,3.28
2022-10-23T21:49:26.696Z,3.33
2022-10-23T21:51:54.925Z,3.35
2022-10-23T21:54:21.619Z,2.95
2022-10-23T21:56:49.420Z,3.28
2022-10-23T22:01:43.887Z,4.38
2022-10-23T22:04:19.847Z,4.05
2022-10-23T22:06:46.992Z,3.90
2022-10-23T22:09:14.306Z,5.30
2022-10-23T22:11:40.936Z,3.75
2022-10-23T22:14:07.574Z,3.92
2022-10-23T22:16:33.975Z,3.72
2022-10-23T22:19:00.373Z,4.35
2022-10-23T22:21:28.170Z,4.30
2022-10-23T22:26:21.353Z,5.75
2022-10-23T22:28:47.935Z,6.70
2022-10-23T22:31:18.413Z,6.05
2022-10-23T22:33:44.870Z,6.60
2022-10-23T22:36:11.250Z,11.00
2022-10-23T22:38:38.215Z,9.52
2022-10-23T22:41:04.599Z,7.93
2022-10-23T22:43:31.096Z,5.15
2022-10-23T22:46:14.104Z,5.22
2022-10-23T22:48:40.934Z,5.13
2022-10-23T22:51:09.046Z,4.75
2022-10-23T22:53:35.635Z,5.10
2022-10-23T22:56:05.081Z,4.15
2022-10-23T22:58:31.447Z,3.80
2022-10-23T23:01:03.166Z,3.78
2022-10-23T23:03:29.564Z,3.70
2022-10-23T23:05:56.002Z,5.50
2022-10-23T23:08:22.357Z,8.05
2022-10-23T23:10:54.589Z,6.63
2022-10-23T23:13:21.032Z,6.53
2022-10-23T23:15:47.443Z,6.18
2022-10-23T23:18:13.846Z,4.80
2022-10-23T23:20:40.202Z,5.68
2022-10-23T23:23:06.507Z,5.82
2022-10-23T23:25:32.945Z,5.47
2022-10-23T23:27:59.278Z,4.43
2022-10-23T23:30:25.643Z,4.45
2022-10-23T23:32:52.837Z,4.35
2022-10-23T23:35:20.100Z,3.80
2022-10-23T23:37:46.850Z,3.53
2022-10-23T23:40:13.819Z,4.03
2022-10-23T23:42:40.240Z,3.30
2022-10-23T23:45:14.169Z,3.85
2022-10-23T23:47:41.491Z,3.70
2022-10-23T23:50:09.161Z,5.37
2022-10-23T23:52:35.848Z,2.70
2022-10-23T23:55:02.212Z,3.45
2022-10-23T23:57:28.593Z,3.72
2022-10-23T23:59:55.001Z,2.90
